Time;durP1;ratioP1;P1;durP2;ratioP2;P2;SDS_P1;SDS_P2;PMS_P1;PMS_P2;Temp;Humidity;BMP_temperature;BMP_pressure;BME280_temperature;BME280_humidity;BME280_pressure;Samples;Min_cycle;Max_cycle;Signal;HPM_P1;HPM_P2
2022/04/28 00:02:53;;;;;;;5.18;2.78;;;;;;;6.69;94.41;102604.06;6246508;28;20061;-71
2022/04/28 00:05:54;;;;;;;5.22;3.10;;;;;;;6.66;93.92;102603.22;6246992;28;20709;-71
2022/04/28 00:08:55;;;;;;;9.07;2.78;;;;;;;6.65;94.07;102601.47;6247024;28;20056;-71
2022/04/28 00:11:57;;;;;;;13.55;2.45;;;;;;;6.58;95.21;102604.13;6246075;28;20053;-71
2022/04/28 00:14:58;;;;;;;6.28;2.80;;;;;;;6.53;95.50;102603.28;6247105;28;20489;-71
2022/04/28 00:18:01;;;;;;;5.45;2.50;;;;;;;6.54;96.05;102609.38;6246183;28;20054;-72
2022/04/28 00:21:02;;;;;;;4.60;2.25;;;;;;;6.53;95.06;102605.03;6246094;28;20525;-71
2022/04/28 00:24:04;;;;;;;6.32;2.38;;;;;;;6.53;95.71;102605.03;6246627;28;20053;-71
2022/04/28 00:27:06;;;;;;;4.35;2.33;;;;;;;6.47;95.69;102608.56;6246554;28;20046;-71
2022/04/28 00:30:09;;;;;;;10.93;2.83;;;;;;;6.49;95.73;102609.41;6246125;28;20110;-71
2022/04/28 00:33:11;;;;;;;4.22;2.50;;;;;;;6.47;95.73;102607.69;6245897;28;20056;-71
2022/04/28 00:36:12;;;;;;;4.28;2.65;;;;;;;6.44;95.92;102612.94;6246568;28;20049;-72
2022/04/28 00:39:14;;;;;;;3.25;2.28;;;;;;;6.40;95.63;102611.22;6246408;28;20049;-72
2022/04/28 00:42:16;;;;;;;3.20;1.95;;;;;;;6.34;96.21;102612.13;6245993;28;20052;-71
2022/04/28 00:45:18;;;;;;;3.72;2.40;;;;;;;6.28;97.32;102614.78;6246224;28;20053;-71
2022/04/28 00:51:40;;;;;;;3.35;2.13;;;;;;;6.18;98.35;102616.56;6245605;28;20045;-71
2022/04/28 00:54:43;;;;;;;5.50;2.58;;;;;;;6.17;99.57;102612.19;6246535;28;20049;-71
2022/04/28 00:57:45;;;;;;;3.08;2.22;;;;;;;6.14;99.72;102607.00;6246245;28;20052;-71
2022/04/28 01:00:46;;;;;;;5.47;3.13;;;;;;;6.06;100.00;102616.63;6245750;28;20052;-71
2022/04/28 01:03:49;;;;;;;11.63;2.42;;;;;;;6.00;100.00;102621.88;6246163;28;20060;-71
2022/04/28 01:06:52;;;;;;;4.03;2.10;;;;;;;5.92;100.00;102621.03;6246347;28;20056;-71
2022/04/28 01:09:53;;;;;;;7.35;3.30;;;;;;;5.88;100.00;102614.91;6246127;28;20053;-71
2022/04/28 01:12:55;;;;;;;5.20;2.47;;;;;;;5.82;100.00;102615.81;6245896;28;20045;-71
2022/04/28 01:15:56;;;;;;;4.10;2.60;;;;;;;5.79;100.00;102614.94;6246082;28;20049;-71
2022/04/28 01:19:00;;;;;;;3.67;2.10;;;;;;;5.71;100.00;102617.56;6246042;28;20056;-71
2022/04/28 01:22:04;;;;;;;3.40;2.42;;;;;;;5.66;100.00;102615.88;6245381;28;20060;-71
2022/04/28 01:25:08;;;;;;;4.78;2.47;;;;;;;5.62;100.00;102619.34;6248372;28;20049;-71
2022/04/28 01:28:09;;;;;;;5.72;2.47;;;;;;;5.59;100.00;102621.09;6250798;28;20054;-71
2022/04/28 01:31:10;;;;;;;4.57;2.75;;;;;;;5.58;100.00;102627.16;6249880;28;20710;-71
2022/04/28 01:34:12;;;;;;;4.55;2.55;;;;;;;5.57;100.00;102625.44;6250660;28;20054;-71
2022/04/28 01:37:14;;;;;;;6.68;2.67;;;;;;;5.55;100.00;102632.41;6250245;28;20057;-71
2022/04/28 01:40:16;;;;;;;5.60;2.67;;;;;;;5.50;100.00;102628.09;6250190;28;20520;-71
2022/04/28 01:43:17;;;;;;;4.32;2.35;;;;;;;5.46;100.00;102632.44;6249811;28;20045;-71
2022/04/28 01:46:19;;;;;;;5.43;2.97;;;;;;;5.42;100.00;102629.84;6250008;28;20046;-71
2022/04/28 01:49:20;;;;;;;5.90;3.03;;;;;;;5.39;100.00;102627.22;6250534;28;20045;-72
2022/04/28 01:55:42;;;;;;;5.47;2.95;;;;;;;5.32;100.00;102637.66;6250112;28;20416;-71
2022/04/28 01:58:43;;;;;;;8.98;2.80;;;;;;;5.26;100.00;102629.84;6249746;28;20516;-71
2022/04/28 02:01:45;;;;;;;7.93;2.47;;;;;;;5.26;100.00;102626.34;6249116;28;20485;-71
2022/04/28 02:04:46;;;;;;;6.50;2.88;;;;;;;5.21;100.00;102620.28;6249746;28;20057;-71
2022/04/28 02:07:49;;;;;;;6.40;2.50;;;;;;;5.20;100.00;102623.78;6249914;28;20647;-71
2022/04/28 02:10:50;;;;;;;4.90;2.63;;;;;;;5.15;100.00;102628.13;6248791;28;20057;-71
2022/04/28 02:13:52;;;;;;;6.88;2.38;;;;;;;5.11;100.00;102626.38;6249759;28;20045;-71
2022/04/28 02:16:53;;;;;;;9.73;3.05;;;;;;;5.05;100.00;102629.88;6249039;28;20053;-71
2022/04/28 02:19:55;;;;;;;3.88;2.45;;;;;;;5.04;100.00;102629.00;6248855;28;20054;-71
2022/04/28 02:22:58;;;;;;;5.57;2.85;;;;;;;5.01;100.00;102631.59;6248622;28;20049;-71
2022/04/28 02:25:59;;;;;;;6.68;3.67;;;;;;;4.95;100.00;102626.41;6249293;28;20056;-71
2022/04/28 02:29:01;;;;;;;11.02;3.20;;;;;;;4.88;100.00;102629.84;6249123;28;20057;-71
2022/04/28 02:32:03;;;;;;;8.57;3.63;;;;;;;4.82;100.00;102625.50;6248292;28;20048;-71
2022/04/28 02:35:05;;;;;;;6.55;3.20;;;;;;;4.78;100.00;102634.19;6248551;28;20053;-71
2022/04/28 02:38:08;;;;;;;7.65;4.05;;;;;;;4.81;100.00;102642.03;6248326;28;20046;-71
2022/04/28 02:41:09;;;;;;;5.65;3.40;;;;;;;4.78;100.00;102639.41;6248210;28;20052;-71
2022/04/28 02:44:12;;;;;;;6.63;3.28;;;;;;;4.74;100.00;102644.59;6248805;28;20432;-71
2022/04/28 02:47:13;;;;;;;5.50;2.95;;;;;;;4.68;100.00;102642.88;6248916;28;20504;-71
2022/04/28 02:50:14;;;;;;;6.43;3.50;;;;;;;4.65;100.00;102642.84;6248351;28;20255;-71
2022/04/28 02:53:17;;;;;;;8.38;3.20;;;;;;;4.61;100.00;102637.63;6248299;28;20054;-71
2022/04/28 02:56:19;;;;;;;4.90;2.67;;;;;;;4.57;100.00;102637.63;6248612;28;20049;-71
2022/04/28 02:59:20;;;;;;;6.70;2.92;;;;;;;4.57;100.00;102635.00;6248614;28;20049;-71
2022/04/28 03:02:21;;;;;;;7.88;3.47;;;;;;;4.52;100.00;102641.94;6247883;28;20045;-71
2022/04/28 03:05:23;;;;;;;9.73;3.70;;;;;;;4.50;100.00;102632.41;6248285;28;20056;-71
2022/04/28 03:11:45;;;;;;;6.72;3.33;;;;;;;4.46;100.00;102644.56;6247743;28;20053;-71
2022/04/28 03:14:46;;;;;;;6.30;2.78;;;;;;;4.40;100.00;102641.03;6248004;28;20412;-71
2022/04/28 03:17:48;;;;;;;7.40;3.08;;;;;;;4.38;100.00;102643.66;6248006;28;20045;-71
2022/04/28 03:20:49;;;;;;;6.25;3.20;;;;;;;4.25;100.00;102636.66;6247243;28;20626;-71
2022/04/28 03:23:52;;;;;;;6.00;3.03;;;;;;;4.19;100.00;102642.72;6247956;28;20427;-71
2022/04/28 03:26:53;;;;;;;5.47;2.53;;;;;;;4.17;100.00;102639.22;6247949;28;20049;-71
2022/04/28 03:29:55;;;;;;;6.47;3.15;;;;;;;4.16;100.00;102641.84;6247386;28;20051;-71
2022/04/28 03:32:56;;;;;;;9.52;3.35;;;;;;;4.18;100.00;102646.19;6247420;28;20053;-71
2022/04/28 03:35:58;;;;;;;7.38;3.25;;;;;;;4.21;100.00;102640.13;6247348;28;20223;-71
2022/04/28 03:39:01;;;;;;;7.28;2.97;;;;;;;4.19;100.00;102647.06;6247772;28;20041;-71
2022/04/28 03:42:02;;;;;;;7.65;3.67;;;;;;;4.08;100.00;102647.00;6246612;28;20046;-71
2022/04/28 03:45:04;;;;;;;11.30;3.67;;;;;;;4.01;100.00;102640.06;6247422;28;20527;-71
2022/04/28 03:48:08;;;;;;;6.18;3.42;;;;;;;3.92;100.00;102642.63;6247100;28;20058;-71
2022/04/28 03:51:09;;;;;;;9.02;2.97;;;;;;;3.85;100.00;102643.44;6246553;28;20048;-71
2022/04/28 03:54:12;;;;;;;7.53;2.90;;;;;;;3.80;100.00;102651.22;6247559;28;20432;-71
2022/04/28 03:57:13;;;;;;;5.65;3.00;;;;;;;3.73;100.00;102647.72;6247157;28;20191;-71
2022/04/28 04:00:15;;;;;;;11.15;3.25;;;;;;;3.61;100.00;102655.44;6247146;28;20053;-71
2022/04/28 04:03:17;;;;;;;6.03;3.05;;;;;;;3.58;100.00;102657.16;6246523;28;20060;-69
2022/04/28 04:06:19;;;;;;;7.15;3.25;;;;;;;3.63;100.00;102653.72;6247362;28;20493;-69
2022/04/28 04:09:21;;;;;;;7.50;3.63;;;;;;;3.70;100.00;102652.91;6246835;28;20075;-69
2022/04/28 04:12:23;;;;;;;15.48;2.97;;;;;;;3.65;100.00;102653.75;6246394;28;20046;-71
2022/04/28 04:15:24;;;;;;;3.38;2.38;;;;;;;3.62;100.00;102656.31;6246880;28;20056;-71
2022/04/28 04:18:25;;;;;;;5.97;2.58;;;;;;;3.60;100.00;102655.44;6246475;28;20055;-71
2022/04/28 04:21:27;;;;;;;4.60;2.63;;;;;;;3.60;100.00;102661.50;6245874;28;20045;-71
2022/04/28 04:24:30;;;;;;;8.20;4.50;;;;;;;3.65;100.00;102661.53;6239693;28;20041;-71
2022/04/28 04:27:32;;;;;;;5.35;2.55;;;;;;;3.65;100.00;102666.72;6233771;28;20056;-71
2022/04/28 04:33:52;;;;;;;6.93;3.13;;;;;;;3.58;100.00;102671.00;6240865;28;20136;-71
2022/04/28 04:36:54;;;;;;;7.20;2.97;;;;;;;3.60;100.00;102665.84;6245982;28;20436;-71
2022/04/28 04:39:56;;;;;;;6.68;2.53;;;;;;;3.62;100.00;102664.09;6245372;28;20049;-71
2022/04/28 04:42:58;;;;;;;7.18;3.97;;;;;;;3.56;100.00;102671.00;6244878;28;20053;-71
2022/04/28 04:45:59;;;;;;;6.82;3.40;;;;;;;3.60;100.00;102663.25;6245617;28;20077;-71
2022/04/28 04:49:01;;;;;;;7.97;2.55;;;;;;;3.68;100.00;102670.22;6245368;28;20053;-71
2022/04/28 04:52:02;;;;;;;4.65;3.25;;;;;;;3.71;100.00;102680.63;6244674;28;20065;-71
2022/04/28 04:55:06;;;;;;;7.13;3.03;;;;;;;3.76;100.00;102680.66;6245303;28;20137;-71
2022/04/28 04:58:08;;;;;;;10.65;3.20;;;;;;;3.88;100.00;102680.72;6245504;28;20054;-71
2022/04/28 05:01:09;;;;;;;5.05;3.03;;;;;;;4.00;100.00;102696.41;6248423;28;20393;-71
2022/04/28 05:04:10;;;;;;;6.40;3.15;;;;;;;4.10;100.00;102696.47;6249383;28;20052;-71
2022/04/28 05:07:12;;;;;;;6.90;3.15;;;;;;;4.13;100.00;102696.47;6249683;28;20527;-71
2022/04/28 05:10:14;;;;;;;9.93;3.25;;;;;;;4.21;100.00;102690.44;6249115;28;20053;-71
2022/04/28 05:13:16;;;;;;;8.82;3.58;;;;;;;4.24;100.00;102705.19;6249099;28;20041;-71
2022/04/28 05:16:17;;;;;;;12.80;4.18;;;;;;;4.31;100.00;102709.56;6249279;28;20045;-71
2022/04/28 05:19:18;;;;;;;5.95;3.10;;;;;;;4.36;100.00;102709.56;6249483;28;20052;-71
2022/04/28 05:22:20;;;;;;;5.32;2.60;;;;;;;4.44;100.00;102706.13;6248462;28;20452;-71
2022/04/28 05:25:23;;;;;;;5.22;2.50;;;;;;;4.51;100.00;102701.84;6249314;28;20053;-71
2022/04/28 05:28:27;;;;;;;11.02;3.72;;;;;;;4.55;100.00;102703.59;6248891;28;20057;-71
2022/04/28 05:31:29;;;;;;;5.88;3.38;;;;;;;4.60;100.00;102703.59;6248375;28;20574;-71
2022/04/28 05:34:30;;;;;;;4.78;2.83;;;;;;;4.70;100.00;102702.75;6249003;28;20046;-71
2022/04/28 05:37:31;;;;;;;6.30;2.85;;;;;;;4.80;100.00;102707.09;6215268;28;991860;-71
2022/04/28 05:40:34;;;;;;;4.40;2.65;;;;;;;4.93;100.00;102715.81;6249851;28;20057;-71
2022/04/28 05:46:55;;;;;;;;;;;;;;;5.06;100.00;102713.25;6250651;28;20053;-71
2022/04/28 05:49:56;;;;;;;6.45;3.13;;;;;;;5.09;100.00;102720.19;6249759;28;19924;-71
2022/04/28 05:52:58;;;;;;;5.43;2.83;;;;;;;5.18;100.00;102721.91;6249789;28;20053;-71
2022/04/28 05:56:00;;;;;;;6.10;2.67;;;;;;;5.22;100.00;102721.97;6250141;28;20053;-71
2022/04/28 05:59:02;;;;;;;3.28;2.38;;;;;;;5.32;100.00;102726.31;6250008;28;20052;-71
2022/04/28 06:02:04;;;;;;;4.45;3.17;;;;;;;5.41;100.00;102730.66;6248992;28;20096;-71
2022/04/28 06:05:06;;;;;;;6.55;2.90;;;;;;;5.53;100.00;102727.16;6249715;28;20412;-71
2022/04/28 06:08:08;;;;;;;5.70;3.03;;;;;;;5.62;100.00;102734.97;6249735;28;20045;-71
2022/04/28 06:11:11;;;;;;;3.45;2.22;;;;;;;5.78;100.00;102735.84;6249058;28;20136;-71
2022/04/28 06:14:13;;;;;;;6.25;3.08;;;;;;;5.83;100.00;102734.09;6249760;28;20076;-71
2022/04/28 06:17:14;;;;;;;4.63;2.20;;;;;;;5.91;100.00;102739.31;6249185;28;20049;-72
2022/04/28 06:20:16;;;;;;;7.45;2.83;;;;;;;6.00;100.00;102741.94;6248864;28;20048;-71
2022/04/28 06:23:17;;;;;;;7.57;2.40;;;;;;;5.99;100.00;102748.00;6247385;28;20520;-71
2022/04/28 06:26:20;;;;;;;8.25;2.78;;;;;;;6.01;100.00;102741.03;6249253;28;20057;-71
2022/04/28 06:29:21;;;;;;;6.22;3.05;;;;;;;6.19;100.00;102750.56;6249176;28;20049;-71
2022/04/28 06:32:23;;;;;;;5.43;2.22;;;;;;;6.26;100.00;102747.06;6248035;28;20051;-71
2022/04/28 06:35:24;;;;;;;4.47;2.83;;;;;;;6.33;100.00;102746.16;6249084;28;20056;-71
2022/04/28 06:38:26;;;;;;;3.80;2.33;;;;;;;6.37;100.00;102747.91;6248086;28;20049;-72
2022/04/28 06:41:29;;;;;;;7.90;2.60;;;;;;;6.45;100.00;102748.75;6247858;28;20056;-71
2022/04/28 06:44:30;;;;;;;4.40;2.17;;;;;;;6.60;100.00;102748.66;6248543;28;20508;-71
2022/04/28 06:47:32;;;;;;;8.07;3.03;;;;;;;6.71;100.00;102748.59;6248581;28;20054;-71
2022/04/28 06:50:33;;;;;;;3.55;1.80;;;;;;;6.79;100.00;102749.44;6248297;28;20049;-71
2022/04/28 06:53:34;;;;;;;5.43;2.33;;;;;;;6.83;100.00;102758.13;6248217;28;20420;-72
2022/04/28 06:56:37;;;;;;;7.45;2.30;;;;;;;6.92;100.00;102755.47;6248604;28;20515;-72
2022/04/28 06:59:38;;;;;;;3.83;1.80;;;;;;;6.99;100.00;102757.16;6248460;28;20053;-71
2022/04/28 07:02:39;;;;;;;5.00;1.85;;;;;;;7.04;100.00;102759.75;6246901;28;20068;-71
2022/04/28 07:05:41;;;;;;;6.07;1.70;;;;;;;7.11;100.00;102758.84;6247452;28;20054;-71
2022/04/28 07:08:43;;;;;;;3.90;1.83;;;;;;;7.17;100.00;102757.91;6248320;28;20060;-72
2022/04/28 07:11:46;;;;;;;5.82;3.00;;;;;;;7.21;100.00;102749.19;6247512;28;20060;-71
2022/04/28 07:14:47;;;;;;;5.25;1.67;;;;;;;7.25;100.00;102762.22;6248070;28;20045;-71
2022/04/28 07:17:49;;;;;;;7.72;2.28;;;;;;;7.32;100.00;102770.91;6248286;28;20046;-72
2022/04/28 07:20:50;;;;;;;6.80;3.30;;;;;;;7.38;100.00;102763.00;6247102;28;20045;-71
2022/04/28 07:23:51;;;;;;;4.35;2.15;;;;;;;7.44;100.00;102762.06;6247517;28;20132;-72
2022/04/28 07:26:54;;;;;;;6.57;2.58;;;;;;;7.54;100.00;102759.41;6243274;28;20420;-72
2022/04/28 07:29:55;;;;;;;4.82;2.45;;;;;;;7.64;100.00;102762.81;6242734;28;20056;-72
2022/04/28 07:32:57;;;;;;;4.28;2.08;;;;;;;7.72;100.00;102765.31;6247048;28;20045;-72
2022/04/28 07:35:58;;;;;;;4.10;2.08;;;;;;;7.78;100.00;102767.91;6233592;28;20058;-72
2022/04/28 07:38:59;;;;;;;7.22;1.60;;;;;;;7.83;100.00;102773.97;6223158;28;20133;-72
2022/04/28 07:42:02;;;;;;;4.03;2.42;;;;;;;7.97;98.87;102772.06;6222275;28;20425;-72
2022/04/28 07:45:04;;;;;;;6.35;2.00;;;;;;;8.02;97.99;102780.75;6235144;28;20052;-73
2022/04/28 07:48:06;;;;;;;6.57;1.70;;;;;;;8.03;98.21;102781.63;6246655;28;20057;-72
2022/04/28 07:51:07;;;;;;;6.35;2.13;;;;;;;8.05;98.96;102785.09;6246761;28;20049;-73
2022/04/28 07:54:09;;;;;;;3.90;2.15;;;;;;;8.04;98.30;102793.81;6246960;28;20233;-73
2022/04/28 07:57:11;;;;;;;7.13;2.35;;;;;;;8.01;97.82;102789.50;6247446;28;20045;-71
2022/04/28 08:00:14;;;;;;;3.15;2.05;;;;;;;8.11;98.45;102798.13;6246618;28;20547;-72
2022/04/28 08:03:15;;;;;;;4.38;2.42;;;;;;;8.20;97.92;102792.78;6245972;28;20052;-72
2022/04/28 08:06:17;;;;;;;11.30;3.00;;;;;;;8.32;97.67;102789.19;6246798;28;20072;-72
2022/04/28 08:09:19;;;;;;;8.05;2.17;;;;;;;8.44;98.03;102788.19;6246908;28;20443;-72
2022/04/28 08:12:22;;;;;;;4.90;2.08;;;;;;;8.54;92.78;102795.94;6246234;28;20072;-71
2022/04/28 08:15:23;;;;;;;5.50;2.63;;;;;;;8.53;92.49;102801.19;6246756;28;20049;-72
2022/04/28 08:18:25;;;;;;;3.92;2.38;;;;;;;8.51;91.66;102805.59;6246631;28;20429;-71
2022/04/28 08:21:26;;;;;;;3.95;2.55;;;;;;;8.59;91.57;102807.25;6245803;28;20049;-72
2022/04/28 08:24:27;;;;;;;11.77;2.90;;;;;;;8.72;91.80;102805.34;6246852;28;20053;-72
2022/04/28 08:27:30;;;;;;;4.47;2.38;;;;;;;9.00;91.88;102813.72;6245970;28;20057;-71
2022/04/28 08:30:31;;;;;;;4.05;2.63;;;;;;;9.00;88.51;102800.59;6245154;28;20061;-71
2022/04/28 08:33:33;;;;;;;9.57;2.90;;;;;;;9.08;91.33;102797.84;6239698;28;20053;-72
2022/04/28 08:36:34;;;;;;;6.63;3.15;;;;;;;9.09;90.17;102800.47;6245709;28;20068;-71
2022/04/28 08:39:35;;;;;;;6.82;3.08;;;;;;;9.05;89.37;102811.88;6243589;28;20060;-71
2022/04/28 08:42:38;;;;;;;5.13;2.70;;;;;;;9.03;89.74;102810.16;6245480;28;20045;-71
2022/04/28 08:46:50;;;;;;;3.80;2.50;;;;;;;9.07;89.77;102811.84;6240288;28;20443;-72
2022/04/28 08:49:05;;;;;;;6.60;2.97;;;;;;;9.30;89.77;102806.28;6245693;28;20056;-72
2022/04/28 08:52:07;;;;;;;4.07;2.92;;;;;;;9.51;87.35;102807.72;6245090;28;20060;-71
2022/04/28 08:55:10;;;;;;;10.52;3.20;;;;;;;9.63;86.20;102811.03;6246023;28;20463;-72
2022/04/28 08:58:12;;;;;;;5.35;2.50;;;;;;;9.58;85.47;102809.34;6246467;28;20056;-72
2022/04/28 09:01:14;;;;;;;3.92;2.55;;;;;;;9.53;86.24;102804.16;6245613;28;20050;-72
2022/04/28 09:04:17;;;;;;;7.15;2.20;;;;;;;9.58;86.12;102802.34;6245769;28;20049;-72
2022/04/28 09:07:33;;;;;;;5.38;3.08;;;;;;;9.44;85.56;102806.94;6244472;28;20050;-72
2022/04/28 09:10:34;;;;;;;8.75;2.97;;;;;;;9.49;85.29;102799.84;6219343;28;20042;-73
2022/04/28 09:16:59;;;;;;;4.35;2.53;;;;;;;9.78;83.75;102815.13;6244933;28;20050;-71
2022/04/28 09:20:02;;;;;;;8.05;2.78;;;;;;;9.90;83.97;102814.94;6245491;28;20053;-71
2022/04/28 09:23:04;;;;;;;8.10;2.85;;;;;;;9.88;83.88;102800.09;6245012;28;20057;-71
2022/04/28 09:26:07;;;;;;;4.00;2.45;;;;;;;10.03;86.68;102812.06;6242430;28;20054;-71
2022/04/28 09:29:15;;;;;;;3.80;2.53;;;;;;;10.10;80.66;102817.22;6244969;28;20045;-72
2022/04/28 09:32:17;;;;;;;4.53;2.97;;;;;;;10.07;81.12;102801.50;6238382;28;20578;-71
2022/04/28 09:35:18;;;;;;;12.50;2.75;;;;;;;10.13;84.09;102801.41;6244687;28;20053;-71
2022/04/28 09:38:21;;;;;;;6.82;2.97;;;;;;;10.23;84.97;102796.84;6244588;28;20099;-71
2022/04/28 09:44:44;;;;;;;5.05;2.50;;;;;;;10.09;80.30;102793.59;6245178;28;20049;-71
2022/04/28 09:47:45;;;;;;;4.50;2.40;;;;;;;10.23;81.92;102796.84;6248937;28;20056;-71
2022/04/28 09:50:47;;;;;;;6.82;2.03;;;;;;;10.27;78.99;102789.78;6247983;28;20049;-71
2022/04/28 09:53:49;;;;;;;7.13;2.78;;;;;;;10.23;80.92;102790.72;6249239;28;20386;-71
2022/04/28 09:56:51;;;;;;;4.80;2.55;;;;;;;10.22;79.35;102788.97;6249697;28;20061;-71
2022/04/28 09:59:55;;;;;;;5.88;2.33;;;;;;;10.42;78.90;102786.84;6249462;28;20050;-70
2022/04/28 10:02:57;;;;;;;10.32;2.45;;;;;;;10.49;77.24;102788.47;6248514;28;20428;-70
2022/04/28 10:05:58;;;;;;;5.28;2.38;;;;;;;10.54;79.43;102786.63;6242131;28;20056;-70
2022/04/28 10:09:02;;;;;;;4.95;3.00;;;;;;;10.47;77.40;102779.75;6248820;28;20487;-71
2022/04/28 10:12:06;;;;;;;4.93;2.42;;;;;;;10.58;79.76;102774.25;6248541;28;20068;-70
2022/04/28 10:15:11;;;;;;;6.38;2.90;;;;;;;10.87;78.39;102785.03;6243466;28;20136;-71
2022/04/28 10:18:16;;;;;;;4.85;2.20;;;;;;;11.04;76.03;102775.91;6248699;28;20046;-71
2022/04/28 10:21:22;;;;;;;3.00;2.15;;;;;;;11.13;75.16;102773.94;6247791;28;20535;-70
2022/04/28 10:34:23;;;;;;;4.40;2.20;;;;;;;11.34;76.82;102756.75;6246904;28;20045;-71
2022/04/28 10:37:31;;;;;;;3.40;1.90;;;;;;;11.66;73.37;102761.22;6235581;28;20444;-70
2022/04/28 10:40:38;;;;;;;4.13;2.20;;;;;;;11.71;73.55;102762.84;6247440;28;20129;-70
2022/04/28 10:43:41;;;;;;;5.13;2.03;;;;;;;11.74;74.27;102760.16;6248471;28;20411;-71
2022/04/28 10:46:59;;;;;;;3.70;1.88;;;;;;;11.74;71.88;102762.78;6247970;28;20065;-70
2022/04/28 10:50:00;;;;;;;3.22;1.67;;;;;;;11.68;72.20;102769.94;6248164;28;20045;-70
2022/04/28 10:53:05;;;;;;;5.65;2.17;;;;;;;11.72;71.33;102765.47;6248330;28;20049;-70
2022/04/28 10:56:08;;;;;;;2.25;1.65;;;;;;;11.77;70.83;102758.31;6247928;28;20045;-70
2022/04/28 10:59:45;;;;;;;3.75;2.50;;;;;;;12.03;73.81;102759.41;6248168;28;20053;-71
2022/04/28 11:02:48;;;;;;;2.45;1.70;;;;;;;12.34;74.24;102760.28;6244531;28;20049;-71
2022/04/28 11:05:53;;;;;;;2.08;1.85;;;;;;;12.47;69.11;102754.66;6246978;28;20485;-70
2022/04/28 11:08:56;;;;;;;3.53;2.10;;;;;;;12.60;66.24;102756.03;6248446;28;20060;-71
2022/04/28 11:12:07;;;;;;;6.22;2.78;;;;;;;12.61;66.91;102753.34;6247394;28;20511;-71
2022/04/28 11:15:13;;;;;;;2.80;1.73;;;;;;;12.93;67.83;102748.88;6247700;28;20488;-71
2022/04/28 11:18:18;;;;;;;6.65;2.13;;;;;;;13.32;67.77;102749.41;6247841;28;20077;-70
2022/04/28 11:21:20;;;;;;;6.07;2.67;;;;;;;13.73;66.42;102748.94;6247603;28;20056;-72
2022/04/28 11:24:21;;;;;;;9.02;3.75;;;;;;;13.94;64.29;102746.44;6246536;28;20413;-72
2022/04/28 11:27:24;;;;;;;3.13;2.30;;;;;;;14.09;62.06;102752.09;6247011;28;20136;-72
2022/04/28 11:30:26;;;;;;;4.80;2.80;;;;;;;14.67;60.58;102755.22;6246699;28;20056;-72
2022/04/28 11:33:28;;;;;;;7.43;3.40;;;;;;;15.37;57.65;102748.91;6247282;28;20108;-73
2022/04/28 11:36:30;;;;;;;4.13;2.20;;;;;;;15.77;57.99;102747.25;6247621;28;20149;-72
2022/04/28 11:39:35;;;;;;;5.03;2.58;;;;;;;16.11;53.95;102749.28;6247366;28;20052;-71
2022/04/28 11:42:36;;;;;;;8.63;2.70;;;;;;;15.94;52.96;102740.31;6247050;28;20049;-71
2022/04/28 11:45:38;;;;;;;7.30;2.28;;;;;;;17.34;48.17;102741.72;6247223;28;20052;-71
2022/04/28 11:48:41;;;;;;;3.55;2.00;;;;;;;17.11;48.52;102732.25;6247875;28;20068;-71
2022/04/28 11:51:42;;;;;;;2.83;1.85;;;;;;;16.82;50.17;102736.31;6246240;28;20053;-72
2022/04/28 11:54:44;;;;;;;4.38;2.50;;;;;;;17.54;48.20;102735.44;6247267;28;20053;-72
2022/04/28 11:57:45;;;;;;;2.97;1.95;;;;;;;18.25;46.84;102744.97;6247259;28;20057;-71
2022/04/28 12:00:48;;;;;;;5.80;1.95;;;;;;;18.32;48.18;102747.31;6245975;28;20067;-70
2022/04/28 12:03:53;;;;;;;4.07;2.28;;;;;;;19.17;45.58;102739.88;6246545;28;20041;-71
2022/04/28 12:06:55;;;;;;;5.18;1.85;;;;;;;19.83;41.42;102732.47;6246535;28;20053;-71
2022/04/28 12:19:59;;;;;;;2.33;1.90;;;;;;;19.09;44.02;102725.28;6222091;28;20429;-72
2022/04/28 12:23:01;;;;;;;3.10;2.00;;;;;;;19.03;44.48;102726.50;6221944;28;20054;-72
2022/04/28 12:26:06;;;;;;;5.70;1.92;;;;;;;18.27;42.62;102726.25;6222249;28;20058;-72
2022/04/28 12:29:09;;;;;;;2.85;2.00;;;;;;;19.10;42.04;102722.50;6222385;28;20061;-71
2022/04/28 12:32:10;;;;;;;6.70;2.55;;;;;;;19.56;40.00;102726.94;6221584;28;20132;-71
2022/04/28 12:35:22;;;;;;;3.70;2.55;;;;;;;19.75;39.97;102728.44;6231936;28;20041;-71
2022/04/28 12:38:26;;;;;;;2.58;2.03;;;;;;;20.48;39.57;102727.53;6245885;28;20056;-71
2022/04/28 12:41:30;;;;;;;7.50;2.65;;;;;;;20.57;37.48;102724.28;6246386;28;20046;-72
2022/04/28 12:44:44;;;;;;;4.90;2.75;;;;;;;20.47;38.36;102721.34;6246278;28;20452;-73
2022/04/28 12:47:51;;;;;;;6.25;2.22;;;;;;;20.04;38.64;102722.31;6246401;28;20456;-72
2022/04/28 12:54:22;;;;;;;4.35;2.28;;;;;;;21.09;38.81;102699.50;6321323;27;20364;-69
2022/04/28 12:57:24;;;;;;;4.95;2.75;;;;;;;21.69;39.58;102700.81;6325751;28;20085;-72
2022/04/28 13:00:25;;;;;;;5.90;2.28;;;;;;;21.15;37.69;102701.75;6334840;28;20047;-70
2022/04/28 13:03:28;;;;;;;2.95;2.40;;;;;;;20.65;37.64;102702.41;6343118;28;20044;-71
2022/04/28 13:06:32;;;;;;;4.47;2.50;;;;;;;21.32;40.16;102695.31;6342999;28;20101;-70
2022/04/28 13:09:35;;;;;;;2.67;1.98;;;;;;;21.88;37.26;102703.91;6318421;28;20047;-71
2022/04/28 13:12:36;;;;;;;7.82;1.90;;;;;;;21.93;37.28;102704.44;6323115;28;20048;-71
2022/04/28 13:15:38;;;;;;;3.47;2.22;;;;;;;21.22;37.37;102697.72;6300137;28;20048;-72
2022/04/28 13:18:39;;;;;;;12.55;2.97;;;;;;;21.16;39.76;102695.44;6291449;28;20049;-72
2022/04/28 13:21:41;;;;;;;4.15;2.50;;;;;;;21.67;36.43;102698.25;6290400;28;20053;-71
2022/04/28 13:24:43;;;;;;;3.33;2.05;;;;;;;20.49;38.07;102690.06;6291519;28;20049;-71
2022/04/28 13:27:45;;;;;;;3.33;1.92;;;;;;;20.32;39.88;102684.03;6297617;28;20051;-71
2022/04/28 13:30:46;;;;;;;4.30;2.80;;;;;;;21.40;38.02;102681.41;6316738;28;20048;-71
2022/04/28 13:33:49;;;;;;;8.57;2.33;;;;;;;21.50;36.94;102678.00;6316847;28;20492;-71
2022/04/28 13:36:51;;;;;;;4.82;2.03;;;;;;;21.93;38.85;102684.84;6323767;28;20047;-71
2022/04/28 13:39:53;;;;;;;2.92;2.33;;;;;;;21.92;36.84;102683.97;6311577;28;20127;-71
2022/04/28 13:42:55;;;;;;;2.65;2.20;;;;;;;21.91;36.92;102689.47;6328019;28;20040;-71
2022/04/28 13:45:56;;;;;;;5.75;2.83;;;;;;;21.53;35.15;102687.63;6314305;28;20401;-71
2022/04/28 13:48:57;;;;;;;3.92;2.00;;;;;;;20.90;36.95;102673.13;6313204;28;20423;-71
2022/04/28 13:51:59;;;;;;;2.85;2.10;;;;;;;21.65;37.03;102677.88;6315821;28;20071;-71
2022/04/28 13:55:01;;;;;;;5.18;2.13;;;;;;;22.75;35.27;102672.66;6316685;28;20056;-71
2022/04/28 13:58:03;;;;;;;5.30;2.15;;;;;;;22.79;34.71;102658.03;6316180;28;20048;-71
2022/04/28 14:01:05;;;;;;;2.40;1.70;;;;;;;23.33;33.18;102652.19;6311836;28;20527;-71
2022/04/28 14:04:06;;;;;;;8.23;2.20;;;;;;;22.61;34.22;102665.63;6312782;28;20048;-71
2022/04/28 14:07:08;;;;;;;6.60;2.55;;;;;;;22.70;34.38;102658.72;6304972;28;20569;-71
2022/04/28 14:10:13;;;;;;;5.07;1.98;;;;;;;22.68;34.29;102661.53;6323026;28;20048;-70
2022/04/28 14:13:14;;;;;;;2.40;2.00;;;;;;;22.17;35.51;102658.19;6291646;28;20056;-70
2022/04/28 14:16:15;;;;;;;6.15;2.05;;;;;;;21.02;38.05;102661.59;6297408;28;20060;-70
2022/04/28 14:19:17;;;;;;;3.95;2.10;;;;;;;22.15;34.82;102652.91;6285022;28;20426;-69
2022/04/28 14:22:19;;;;;;;5.70;2.45;;;;;;;23.84;32.66;102648.25;6293598;28;20043;-70
2022/04/28 14:25:22;;;;;;;3.58;1.90;;;;;;;23.90;31.21;102645.09;6290946;28;20049;-71
2022/04/28 14:28:23;;;;;;;5.60;2.22;;;;;;;23.83;32.62;102646.53;6290533;28;20052;-69
2022/04/28 14:31:24;;;;;;;5.90;2.10;;;;;;;24.21;31.10;102651.50;6297816;28;20052;-70
2022/04/28 14:34:26;;;;;;;8.13;2.80;;;;;;;19.58;39.58;102645.06;6308943;28;20041;-69
2022/04/28 14:37:27;;;;;;;3.40;1.75;;;;;;;18.62;44.80;102643.56;6315825;28;20040;-71
2022/04/28 14:40:30;;;;;;;2.80;2.13;;;;;;;19.81;41.76;102641.84;6296784;28;20071;-70
2022/04/28 14:43:32;;;;;;;6.00;2.28;;;;;;;22.05;35.81;102649.16;6283700;28;20045;-70
2022/04/28 14:46:33;;;;;;;3.03;2.00;;;;;;;22.53;35.37;102641.25;6282733;28;20049;-70
2022/04/28 14:52:54;;;;;;;;;;;;;;;20.72;38.67;102643.13;6286212;28;20053;-71
2022/04/28 14:55:56;;;;;;;3.80;2.35;;;;;;;21.04;38.90;102648.16;6295220;28;19920;-68
2022/04/28 14:58:58;;;;;;;2.35;1.85;;;;;;;21.40;37.21;102646.63;6290211;28;20512;-71
2022/04/28 15:01:59;;;;;;;3.47;1.85;;;;;;;22.48;35.33;102646.94;6280028;28;20055;-70